• Join FlightAware (Why Join?)
  • Login
  • US Flag 
09:11PM EDT


 

Airport Tracker/Info


-or-


 

Live Flight TrackerFlight Track Log ✈ SKW6306 ✈ 22-Jun-2013 ✈ KDEN - CYXE

Flight Track Log - Related Links

Times and Time Zones

All times are in EDT time to prevent confusion due to time zone crossing. See the SKW6306 flight status page for this flight to view local times or setup timezone preferences in your user account.

Time Position Orientation Groundspeed Altitude Reporting Facility
EDT Latitude Longitude Course Direction KTS MPH feet Rate Location/Type
02:01PM 39.8667 -104.8000 346° North 227 261 7,500  Level Denver TRACON
02:01PM 39.9000 -104.8833 298° West 282 325 8,500 1,680 Climbing Denver TRACON
02:02PM 39.9667 -104.9500 323° Northwest 299 344 10,700 1,860 Climbing Denver TRACON
02:03PM 40.3322 -104.8219 346° North  Level FlightAware Approximate
02:03PM 40.0500 -104.9500 360° North 301 346 12,500  Level Denver TRACON
02:04PM 40.4527 -104.8620 346° North  Level FlightAware Approximate
02:05PM 40.5737 -104.8996 348° North  Level FlightAware Approximate
02:05PM 40.1519 -104.8731 30° Northeast 305 351 14,700  Level Denver Center
02:06PM 40.6947 -104.9371 346° North  Level FlightAware Approximate
02:06PM 40.2150 -104.8153 35° Northeast 323 372 16,100  Level Denver Center
02:07PM 40.3269 -104.8194 358° North 338 389 17,200 1,020 Climbing Denver Center
02:08PM 40.4264 -104.8297 356° North 356 410 18,300 1,080 Climbing Denver Center
02:09PM 40.5375 -104.8369 357° North 367 422 19,500 1,200 Climbing Denver Center
02:10PM 40.6408 -104.8436 357° North 370 426 20,800 1,020 Climbing Denver Center
02:11PM 40.7464 -104.8461 359° North 361 415 21,700 720 Climbing Denver Center
02:12PM 40.8494 -104.8797 346° North 378 435 22,400 720 Climbing Denver Center
02:13PM 40.9569 -104.9053 350° North 396 456 23,300 840 Climbing Denver Center
02:14PM 41.0758 -104.9333 350° North 403 464 24,200 660 Climbing Denver Center
02:15PM 41.2019 -104.9586 351° North 411 473 24,700 480 Climbing Denver Center
02:16PM 41.3144 -104.9814 351° North 424 488 25,200 540 Climbing Denver Center
02:17PM 41.4311 -105.0089 350° North 437 503 25,900 600 Climbing Denver Center
02:18PM 41.5672 -105.0356 352° North 444 511 26,500 480 Climbing Denver Center
02:19PM 41.6844 -105.0614 351° North 445 512 27,000 480 Climbing Denver Center
02:20PM 41.8428 -105.0950 351° North 451 519 27,700 540 Climbing Denver Center
02:21PM 41.9819 -105.1261 351° North 452 520 28,300 480 Climbing Denver Center
02:23PM 42.1011 -105.1517 351° North 452 520 28,800 480 Climbing Denver Center
02:24PM 42.2217 -105.1786 351° North 455 524 29,300 480 Climbing Denver Center
02:25PM 42.3611 -105.2089 351° North 455 524 29,800 480 Climbing Denver Center
02:26PM 42.4811 -105.2353 351° North 453 521 30,400 540 Climbing Denver Center
02:27PM 42.6200 -105.2653 351° North 451 519 31,000 480 Climbing Denver Center
02:28PM 42.7389 -105.2925 350° North 450 518 31,500 480 Climbing Denver Center
02:29PM 42.8786 -105.3217 351° North 451 519 32,000 240 Climbing Denver Center
02:30PM 42.9969 -105.3492 350° North 449 517 32,000  Level Denver Center
02:31PM 43.1167 -105.3753 351° North 453 521 32,000  Level Denver Center
02:32PM 43.2581 -105.4072 351° North 457 526 32,000  Level Denver Center
02:33PM 43.3828 -105.4194 356° North 460 529 32,000  Level Denver Center
02:34PM 43.5297 -105.4244 359° North 466 536 32,000  Level Denver Center
02:35PM 43.6514 -105.4269 359° North 463 533 32,000  Level Denver Center
02:36PM 43.7894 -105.4333 358° North 452 520 32,000  Level Denver Center
02:37PM 43.9064 -105.4422 357° North 445 512 32,000  Level Denver Center
02:38PM 44.0225 -105.4500 357° North 440 506 32,000  Level Denver Center
02:39PM 44.1611 -105.4614 357° North 443 510 32,000  Level Denver Center
02:40PM 44.2814 -105.4728 356° North 448 516 32,000  Level Denver Center
02:41PM 44.4225 -105.4858 356° North 453 521 32,000  Level Denver Center
02:42PM 44.5444 -105.4956 357° North 456 525 32,000  Level Denver Center
02:43PM 44.6275 -105.5067 355° North 459 528 32,000  Level Salt Lake Center
02:44PM 44.7711 -105.5222 356° North 463 533 32,000  Level Salt Lake Center
02:45PM 44.8953 -105.5331 356° North 465 535 32,000  Level Salt Lake Center
02:46PM 45.0392 -105.5544 354° North 465 535 32,000  Level Salt Lake Center
02:47PM 45.1622 -105.5736 354° North 465 535 32,000  Level Salt Lake Center
02:48PM 45.2944 -105.5847 357° North 465 535 32,000  Level Salt Lake Center
02:49PM 45.4206 -105.6156 350° North 461 531 32,000  Level Salt Lake Center
02:50PM 45.5442 -105.6592 346° North 459 528 32,000  Level Salt Lake Center
02:51PM 45.6681 -105.7031 346° North 459 528 32,000  Level Salt Lake Center
02:52PM 45.8169 -105.7558 346° North 459 528 32,000  Level Salt Lake Center
02:53PM 45.9397 -105.7950 347° North 456 525 32,000  Level Salt Lake Center
02:54PM 46.0644 -105.8383 346° North 457 526 32,000  Level Salt Lake Center
02:55PM 46.1889 -105.8822 346° North 458 527 32,000  Level Salt Lake Center
02:56PM 46.3147 -105.9253 347° North 460 529 32,000  Level Salt Lake Center
02:57PM 46.4417 -105.9711 346° North 464 534 32,000  Level Salt Lake Center
02:58PM 46.5922 -106.0253 346° North 465 535 32,000 -60 Level Salt Lake Center
02:59PM 46.7175 -106.0717 346° North 464 534 31,900  Descending Salt Lake Center
03:00PM 46.8436 -106.1169 346° North 465 535 32,000  Climbing Salt Lake Center
03:01PM 46.9683 -106.1622 346° North 465 535 32,000  Level Salt Lake Center
03:02PM 47.0933 -106.2075 346° North 464 534 32,000  Level Salt Lake Center
03:03PM 47.2186 -106.2536 346° North 464 534 32,000  Level Salt Lake Center
03:04PM 47.3461 -106.3011 346° North 467 537 32,000  Level Salt Lake Center
03:06PM 47.4981 -106.3578 346° North 469 540 32,000  Level Salt Lake Center
03:07PM 47.6231 -106.4044 346° North 466 536 32,000  Level Salt Lake Center
03:08PM 47.7500 -106.4511 346° North 467 537 32,000  Level Salt Lake Center
03:09PM 47.8772 -106.4981 346° North 469 540 32,000  Level Salt Lake Center
03:10PM 48.0047 -106.5461 346° North 471 542 32,000  Level Salt Lake Center
03:11PM 48.1325 -106.5947 346° North 472 543 32,000  Level Salt Lake Center
03:12PM 48.2847 -106.6578 345° North 473 544 32,000  Level Salt Lake Center
03:13PM 48.4078 -106.7203 341° North 470 541 32,000  Level Salt Lake Center
03:14PM 48.5317 -106.7819 342° North 469 540 32,000  Level Salt Lake Center
03:15PM 48.6561 -106.8442 342° North 471 542 32,000  Level Salt Lake Center
03:16PM 48.7797 -106.9072 341° North 471 542 32,000  Level Salt Lake Center
03:17PM 48.9042 -106.9689 342° North 470 541 32,000  Level Salt Lake Center
03:18PM 49.0278 -107.0311 342° North 469 540 32,000  Level Salt Lake Center
03:19PM 49.1833 -107.1500 333° Northwest 470 541 32,000  Level Winnipeg Center
03:20PM 49.3167 -107.2167 342° North 460 529 32,000  Level Winnipeg Center
03:21PM 49.4333 -107.2667 344° North 460 529 32,000  Level Winnipeg Center
03:22PM 49.5333 -107.3500 332° Northwest 450 518 32,000  Level Winnipeg Center
03:23PM 49.6667 -107.4333 338° Northwest 450 518 32,000  Level Winnipeg Center
03:24PM 49.7833 -107.5000 340° North 450 518 32,000  Level Winnipeg Center
03:25PM 49.8833 -107.5833 332° Northwest 440 506 32,000  Level Winnipeg Center
03:26PM 50.0000 -107.6667 335° Northwest 450 518 32,000  Level Winnipeg Center
03:27PM 50.1167 -107.7167 345° North 430 495 32,000  Level Winnipeg Center
03:28PM 50.2333 -107.8000 335° Northwest 440 506 32,000  Level Winnipeg Center
03:29PM 50.3500 -107.8000 360° North 440 506 32,000  Level Winnipeg Center
03:30PM 50.4667 -107.7667 10° North 440 506 32,000 -60 Level Winnipeg Center
03:31PM 50.5833 -107.7167 15° North 440 506 31,900 -900 Descending Winnipeg Center
03:32PM 50.7000 -107.6333 24° Northeast 450 518 30,200 -2,040 Descending Winnipeg Center
03:33PM 50.8500 -107.6000 North 480 552 27,900 -2,520 Descending Winnipeg Center
03:34PM 50.9500 -107.5333 23° Northeast 480 552 25,200 -2,700 Descending Winnipeg Center
03:35PM 51.0833 -107.4833 13° North 460 529 22,500 -2,880 Descending Winnipeg Center
03:36PM 51.2000 -107.4333 15° North 450 518 19,600 -2,760 Descending Winnipeg Center
03:37PM 51.3167 -107.3833 15° North 440 506 17,000 -2,700 Descending Winnipeg Center
03:38PM 51.4333 -107.3333 15° North 420 483 14,200 -2,580 Descending Winnipeg Center
03:39PM 51.5333 -107.2667 23° Northeast 390 449 11,900 -1,800 Descending Winnipeg Center
03:40PM 51.6167 -107.2333 14° North 350 403 10,600 -1,380 Descending Winnipeg Center
03:41PM 51.7167 -107.2000 12° North 320 368 9,200 -1,500 Descending Winnipeg Center
03:42PM 51.7833 -107.1667 17° North 300 345 7,600 -1,560 Descending Winnipeg Center
03:43PM 51.8667 -107.1333 14° North 290 334 6,100 -840 Descending Winnipeg Center
03:44PM 51.9333 -107.0833 25° Northeast 290 334 6,000 -60 Descending Winnipeg Center
03:45PM 52.0167 -107.0500 14° North 290 334 6,000 -600 Level Winnipeg Center
03:46PM 52.0833 -107.0167 17° North 270 311 4,900 -1,140 Descending Winnipeg Center